Terminal Aerodrome Forecast
Issued by NWS

Home | Current Version | Previous Version | Text Only | Print | Product List | Glossary On
Versions: 1 2 3 4 5 6 7 8 9 10 11 12 13 14 15 16 17 18 19 20 21 22 23
000
FTUS43 KJKL 020132 AAB
TAFSME
TAF AMD
KSME 020132Z 0202/0224 VRB05KT 2SM SHRA BR VCTS BKN010CB
     FM020230 VRB03KT 4SM BR VCSH BKN020
     FM020700 VRB03KT 3SM BR VCSH OVC010
     FM021300 24008KT P6SM VCTS SCT020 BKN040CB=

USA.gov is the U.S. government's official web portal to all federal, state and local government web resources and services.